sensor_id;sensor_type;location;lat;lon;timestamp;pressure;altitude;pressure_sealevel;temperature;humidity
76853;BME280;65825;52.232;10.566;2024-01-06T00:00:15;99445.72;;;8.67;74.23
76853;BME280;65825;52.232;10.566;2024-01-06T00:02:41;99448.78;;;8.57;75.11
76853;BME280;65825;52.232;10.566;2024-01-06T00:05:07;99453.94;;;8.60;74.80
76853;BME280;65825;52.232;10.566;2024-01-06T00:07:32;99444.50;;;8.74;74.86
76853;BME280;65825;52.232;10.566;2024-01-06T00:09:57;99451.97;;;8.65;75.34
76853;BME280;65825;52.232;10.566;2024-01-06T00:12:23;99452.78;;;8.65;75.80
76853;BME280;65825;52.232;10.566;2024-01-06T00:14:48;99450.81;;;8.70;75.08
76853;BME280;65825;52.232;10.566;2024-01-06T00:17:14;99457.56;;;7.94;76.68
76853;BME280;65825;52.232;10.566;2024-01-06T00:19:39;99466.03;;;8.01;77.89
76853;BME280;65825;52.232;10.566;2024-01-06T00:22:04;99463.97;;;8.09;78.04
76853;BME280;65825;52.232;10.566;2024-01-06T00:24:29;99465.69;;;8.31;76.74
76853;BME280;65825;52.232;10.566;2024-01-06T00:26:54;99460.06;;;8.40;75.79
76853;BME280;65825;52.232;10.566;2024-01-06T00:29:20;99453.31;;;8.33;75.93
76853;BME280;65825;52.232;10.566;2024-01-06T00:31:45;99463.72;;;8.15;77.09
76853;BME280;65825;52.232;10.566;2024-01-06T00:34:10;99461.78;;;8.20;76.42
76853;BME280;65825;52.232;10.566;2024-01-06T00:36:36;99465.63;;;8.33;75.39
76853;BME280;65825;52.232;10.566;2024-01-06T00:39:01;99463.03;;;8.10;76.65
76853;BME280;65825;52.232;10.566;2024-01-06T00:41:26;99465.41;;;8.16;76.61
76853;BME280;65825;52.232;10.566;2024-01-06T00:43:51;99473.09;;;8.22;75.81
76853;BME280;65825;52.232;10.566;2024-01-06T00:46:17;99476.34;;;8.07;76.76
76853;BME280;65825;52.232;10.566;2024-01-06T00:48:42;99477.94;;;7.89;77.47
76853;BME280;65825;52.232;10.566;2024-01-06T00:51:07;99474.94;;;7.77;77.91
76853;BME280;65825;52.232;10.566;2024-01-06T00:53:32;99477.06;;;7.89;77.56
76853;BME280;65825;52.232;10.566;2024-01-06T00:55:58;99489.22;;;7.91;76.72
76853;BME280;65825;52.232;10.566;2024-01-06T00:58:23;99489.84;;;7.98;76.39
76853;BME280;65825;52.232;10.566;2024-01-06T01:00:48;99489.75;;;7.78;77.43
76853;BME280;65825;52.232;10.566;2024-01-06T01:03:14;99501.19;;;7.77;77.83
76853;BME280;65825;52.232;10.566;2024-01-06T01:05:39;99498.63;;;7.75;78.58
76853;BME280;65825;52.232;10.566;2024-01-06T01:08:04;99503.25;;;7.69;78.33
76853;BME280;65825;52.232;10.566;2024-01-06T01:10:30;99502.66;;;7.84;78.70
76853;BME280;65825;52.232;10.566;2024-01-06T01:12:55;99508.69;;;7.86;77.80
76853;BME280;65825;52.232;10.566;2024-01-06T01:15:20;99508.22;;;7.76;78.11
76853;BME280;65825;52.232;10.566;2024-01-06T01:17:46;99516.13;;;7.75;78.08
76853;BME280;65825;52.232;10.566;2024-01-06T01:20:11;99509.47;;;7.89;77.71
76853;BME280;65825;52.232;10.566;2024-01-06T01:22:36;99510.78;;;7.78;77.58
76853;BME280;65825;52.232;10.566;2024-01-06T01:25:01;99518.22;;;7.44;79.16
76853;BME280;65825;52.232;10.566;2024-01-06T01:27:30;99518.75;;;7.30;78.67
76853;BME280;65825;52.232;10.566;2024-01-06T01:29:55;99521.91;;;7.40;78.88
76853;BME280;65825;52.232;10.566;2024-01-06T01:32:21;99533.59;;;7.54;78.20
76853;BME280;65825;52.232;10.566;2024-01-06T01:34:46;99535.63;;;7.69;78.32
76853;BME280;65825;52.232;10.566;2024-01-06T01:37:11;99530.91;;;7.56;77.60
76853;BME280;65825;52.232;10.566;2024-01-06T01:39:36;99535.31;;;7.32;78.77
76853;BME280;65825;52.232;10.566;2024-01-06T01:42:02;99539.03;;;7.50;78.71
76853;BME280;65825;52.232;10.566;2024-01-06T01:44:28;99534.31;;;7.58;78.92
76853;BME280;65825;52.232;10.566;2024-01-06T01:46:53;99543.31;;;7.52;78.93
76853;BME280;65825;52.232;10.566;2024-01-06T01:49:19;99541.28;;;7.36;79.29
76853;BME280;65825;52.232;10.566;2024-01-06T01:51:44;99538.94;;;7.28;79.89
76853;BME280;65825;52.232;10.566;2024-01-06T01:54:10;99539.38;;;7.41;79.38
76853;BME280;65825;52.232;10.566;2024-01-06T01:56:36;99538.09;;;7.51;78.29
76853;BME280;65825;52.232;10.566;2024-01-06T01:59:05;99540.16;;;7.66;78.48
76853;BME280;65825;52.232;10.566;2024-01-06T02:01:31;99539.34;;;7.64;78.25
76853;BME280;65825;52.232;10.566;2024-01-06T02:03:57;99543.41;;;7.49;78.07
76853;BME280;65825;52.232;10.566;2024-01-06T02:06:22;99547.06;;;7.45;78.40
76853;BME280;65825;52.232;10.566;2024-01-06T02:08:48;99539.81;;;7.04;80.79
76853;BME280;65825;52.232;10.566;2024-01-06T02:11:13;99536.63;;;6.96;81.91
76853;BME280;65825;52.232;10.566;2024-01-06T02:13:39;99541.22;;;7.14;81.40
76853;BME280;65825;52.232;10.566;2024-01-06T02:16:05;99549.63;;;7.47;79.50
76853;BME280;65825;52.232;10.566;2024-01-06T02:18:31;99549.53;;;7.50;78.77
76853;BME280;65825;52.232;10.566;2024-01-06T02:20:58;99546.25;;;7.43;78.97
76853;BME280;65825;52.232;10.566;2024-01-06T02:23:24;99554.16;;;7.43;78.99
76853;BME280;65825;52.232;10.566;2024-01-06T02:25:50;99553.00;;;7.50;78.90
76853;BME280;65825;52.232;10.566;2024-01-06T02:28:15;99557.50;;;7.47;79.20
76853;BME280;65825;52.232;10.566;2024-01-06T02:30:40;99557.09;;;7.57;79.25
76853;BME280;65825;52.232;10.566;2024-01-06T02:33:05;99555.44;;;7.55;78.62
76853;BME280;65825;52.232;10.566;2024-01-06T02:35:31;99556.06;;;7.61;77.58
76853;BME280;65825;52.232;10.566;2024-01-06T02:37:56;99564.59;;;7.68;77.35
76853;BME280;65825;52.232;10.566;2024-01-06T02:40:21;99564.06;;;7.81;77.06
76853;BME280;65825;52.232;10.566;2024-01-06T02:42:46;99569.09;;;7.64;77.10
76853;BME280;65825;52.232;10.566;2024-01-06T02:45:12;99565.28;;;7.73;77.66
76853;BME280;65825;52.232;10.566;2024-01-06T02:47:37;99562.06;;;7.65;77.67
76853;BME280;65825;52.232;10.566;2024-01-06T02:50:03;99571.19;;;7.78;76.91
76853;BME280;65825;52.232;10.566;2024-01-06T02:52:28;99574.00;;;7.50;77.82
76853;BME280;65825;52.232;10.566;2024-01-06T02:54:53;99574.75;;;7.54;77.59
76853;BME280;65825;52.232;10.566;2024-01-06T02:57:19;99576.94;;;7.41;77.67
76853;BME280;65825;52.232;10.566;2024-01-06T02:59:44;99582.78;;;7.49;77.10
76853;BME280;65825;52.232;10.566;2024-01-06T03:02:10;99584.22;;;7.58;77.03
76853;BME280;65825;52.232;10.566;2024-01-06T03:04:36;99584.28;;;7.56;77.25
76853;BME280;65825;52.232;10.566;2024-01-06T03:07:01;99584.00;;;7.64;77.42
76853;BME280;65825;52.232;10.566;2024-01-06T03:09:26;99583.34;;;7.57;77.03
76853;BME280;65825;52.232;10.566;2024-01-06T03:11:51;99587.47;;;7.64;76.47
76853;BME280;65825;52.232;10.566;2024-01-06T03:14:17;99597.94;;;7.66;77.03
76853;BME280;65825;52.232;10.566;2024-01-06T03:16:42;99595.94;;;7.49;77.53
76853;BME280;65825;52.232;10.566;2024-01-06T03:19:07;99590.31;;;7.35;77.42
76853;BME280;65825;52.232;10.566;2024-01-06T03:21:32;99596.66;;;7.53;77.44
76853;BME280;65825;52.232;10.566;2024-01-06T03:23:58;99605.47;;;7.52;76.69
76853;BME280;65825;52.232;10.566;2024-01-06T03:26:23;99600.38;;;7.47;77.82
76853;BME280;65825;52.232;10.566;2024-01-06T03:28:49;99604.22;;;7.62;76.73
76853;BME280;65825;52.232;10.566;2024-01-06T03:31:15;99596.56;;;7.56;77.18
76853;BME280;65825;52.232;10.566;2024-01-06T03:33:40;99603.06;;;7.46;77.31
76853;BME280;65825;52.232;10.566;2024-01-06T03:36:06;99594.50;;;7.64;76.97
76853;BME280;65825;52.232;10.566;2024-01-06T03:38:32;99593.19;;;7.52;77.45
76853;BME280;65825;52.232;10.566;2024-01-06T03:40:57;99604.59;;;7.51;77.65
76853;BME280;65825;52.232;10.566;2024-01-06T03:43:22;99603.78;;;7.72;76.21
76853;BME280;65825;52.232;10.566;2024-01-06T03:45:48;99605.13;;;7.61;76.79
76853;BME280;65825;52.232;10.566;2024-01-06T03:48:13;99601.81;;;7.56;77.28
76853;BME280;65825;52.232;10.566;2024-01-06T03:50:38;99604.03;;;7.66;76.76
76853;BME280;65825;52.232;10.566;2024-01-06T03:53:04;99608.44;;;7.66;76.11
76853;BME280;65825;52.232;10.566;2024-01-06T03:55:29;99611.97;;;7.65;76.54
76853;BME280;65825;52.232;10.566;2024-01-06T03:57:55;99611.97;;;7.65;76.32
76853;BME280;65825;52.232;10.566;2024-01-06T04:00:20;99618.78;;;7.70;76.25
76853;BME280;65825;52.232;10.566;2024-01-06T04:02:45;99611.44;;;7.55;76.47
76853;BME280;65825;52.232;10.566;2024-01-06T04:05:11;99616.88;;;7.74;75.62
76853;BME280;65825;52.232;10.566;2024-01-06T04:07:36;99616.16;;;7.70;75.62
76853;BME280;65825;52.232;10.566;2024-01-06T04:10:01;99624.66;;;7.77;75.59
76853;BME280;65825;52.232;10.566;2024-01-06T04:12:26;99624.16;;;7.90;75.42
76853;BME280;65825;52.232;10.566;2024-01-06T04:14:52;99633.16;;;7.83;75.51
76853;BME280;65825;52.232;10.566;2024-01-06T04:17:18;99633.06;;;7.86;75.21
76853;BME280;65825;52.232;10.566;2024-01-06T04:19:43;99632.19;;;7.86;74.78
76853;BME280;65825;52.232;10.566;2024-01-06T04:22:08;99634.94;;;7.83;75.21
76853;BME280;65825;52.232;10.566;2024-01-06T04:24:33;99640.00;;;7.87;74.83
76853;BME280;65825;52.232;10.566;2024-01-06T04:27:03;99640.44;;;7.77;75.42
76853;BME280;65825;52.232;10.566;2024-01-06T04:29:29;99643.66;;;7.83;75.66
76853;BME280;65825;52.232;10.566;2024-01-06T04:31:54;99636.94;;;7.76;75.69
76853;BME280;65825;52.232;10.566;2024-01-06T04:34:19;99649.16;;;7.77;75.49
76853;BME280;65825;52.232;10.566;2024-01-06T04:36:45;99643.84;;;7.56;75.83
76853;BME280;65825;52.232;10.566;2024-01-06T04:39:10;99650.00;;;7.78;75.85
76853;BME280;65825;52.232;10.566;2024-01-06T04:41:37;99652.19;;;7.67;76.24
76853;BME280;65825;52.232;10.566;2024-01-06T04:44:03;99661.44;;;7.77;75.85
76853;BME280;65825;52.232;10.566;2024-01-06T04:46:28;99649.03;;;7.80;75.42
76853;BME280;65825;52.232;10.566;2024-01-06T04:48:55;99665.09;;;7.73;75.69
76853;BME280;65825;52.232;10.566;2024-01-06T04:51:20;99662.50;;;7.71;76.98
76853;BME280;65825;52.232;10.566;2024-01-06T04:53:46;99667.03;;;8.14;78.60
76853;BME280;65825;52.232;10.566;2024-01-06T04:56:11;99673.91;;;8.41;78.09
76853;BME280;65825;52.232;10.566;2024-01-06T04:58:36;99677.09;;;8.70;75.96
76853;BME280;65825;52.232;10.566;2024-01-06T05:01:02;99679.16;;;8.84;74.39
76853;BME280;65825;52.232;10.566;2024-01-06T05:03:27;99685.97;;;8.68;73.39
76853;BME280;65825;52.232;10.566;2024-01-06T05:05:53;99678.31;;;8.83;74.12
76853;BME280;65825;52.232;10.566;2024-01-06T05:08:18;99677.81;;;8.74;74.17
76853;BME280;65825;52.232;10.566;2024-01-06T05:10:44;99678.91;;;8.47;73.75
76853;BME280;65825;52.232;10.566;2024-01-06T05:13:09;99682.19;;;8.75;73.32
76853;BME280;65825;52.232;10.566;2024-01-06T05:15:35;99677.69;;;8.77;72.90
76853;BME280;65825;52.232;10.566;2024-01-06T05:18:00;99683.31;;;8.68;73.51
76853;BME280;65825;52.232;10.566;2024-01-06T05:20:25;99693.00;;;8.67;71.93
76853;BME280;65825;52.232;10.566;2024-01-06T05:22:51;99693.75;;;8.71;73.27
76853;BME280;65825;52.232;10.566;2024-01-06T05:25:16;99695.56;;;9.12;72.69
76853;BME280;65825;52.232;10.566;2024-01-06T05:27:41;99697.59;;;9.25;71.52
76853;BME280;65825;52.232;10.566;2024-01-06T05:30:07;99691.34;;;9.28;71.28
76853;BME280;65825;52.232;10.566;2024-01-06T05:32:33;99699.06;;;9.32;70.33
76853;BME280;65825;52.232;10.566;2024-01-06T05:34:58;99699.00;;;8.92;70.39
76853;BME280;65825;52.232;10.566;2024-01-06T05:37:23;99703.59;;;9.29;71.10
76853;BME280;65825;52.232;10.566;2024-01-06T05:39:49;99710.84;;;9.24;71.59
76853;BME280;65825;52.232;10.566;2024-01-06T05:42:14;99705.94;;;9.15;70.79
76853;BME280;65825;52.232;10.566;2024-01-06T05:44:42;99719.84;;;9.38;70.70
76853;BME280;65825;52.232;10.566;2024-01-06T05:47:08;99718.88;;;9.41;69.81
76853;BME280;65825;52.232;10.566;2024-01-06T05:49:33;99723.25;;;9.42;68.79
76853;BME280;65825;52.232;10.566;2024-01-06T05:51:59;99729.56;;;9.16;69.94
76853;BME280;65825;52.232;10.566;2024-01-06T05:54:24;99726.16;;;9.14;69.87
76853;BME280;65825;52.232;10.566;2024-01-06T05:56:49;99745.31;;;8.96;69.63
76853;BME280;65825;52.232;10.566;2024-01-06T05:59:15;99742.94;;;9.12;70.40
76853;BME280;65825;52.232;10.566;2024-01-06T06:01:40;99741.47;;;9.05;70.69
76853;BME280;65825;52.232;10.566;2024-01-06T06:04:05;99743.66;;;8.94;70.91
76853;BME280;65825;52.232;10.566;2024-01-06T06:06:31;99744.41;;;9.19;70.53
76853;BME280;65825;52.232;10.566;2024-01-06T06:08:56;99745.38;;;8.73;70.75
76853;BME280;65825;52.232;10.566;2024-01-06T06:11:21;99752.31;;;8.76;70.94
76853;BME280;65825;52.232;10.566;2024-01-06T06:13:47;99759.91;;;8.83;72.24
76853;BME280;65825;52.232;10.566;2024-01-06T06:16:12;99758.97;;;8.84;70.68
76853;BME280;65825;52.232;10.566;2024-01-06T06:18:38;99764.97;;;8.88;70.60
76853;BME280;65825;52.232;10.566;2024-01-06T06:21:04;99757.03;;;8.89;70.77
76853;BME280;65825;52.232;10.566;2024-01-06T06:23:32;99765.50;;;8.97;70.47
76853;BME280;65825;52.232;10.566;2024-01-06T06:25:57;99777.50;;;8.81;71.29
76853;BME280;65825;52.232;10.566;2024-01-06T06:28:22;99779.00;;;8.88;71.59
76853;BME280;65825;52.232;10.566;2024-01-06T06:30:48;99787.00;;;8.64;70.79
76853;BME280;65825;52.232;10.566;2024-01-06T06:33:13;99783.06;;;8.74;71.33
76853;BME280;65825;52.232;10.566;2024-01-06T06:35:39;99784.97;;;8.47;71.37
76853;BME280;65825;52.232;10.566;2024-01-06T06:38:04;99793.09;;;8.41;71.66
76853;BME280;65825;52.232;10.566;2024-01-06T06:40:29;99798.97;;;8.71;71.34
76853;BME280;65825;52.232;10.566;2024-01-06T06:42:55;99787.97;;;8.83;70.95
76853;BME280;65825;52.232;10.566;2024-01-06T06:45:20;99801.66;;;8.92;70.23
76853;BME280;65825;52.232;10.566;2024-01-06T06:47:47;99807.66;;;8.73;70.50
76853;BME280;65825;52.232;10.566;2024-01-06T06:50:13;99806.13;;;8.67;71.80
76853;BME280;65825;52.232;10.566;2024-01-06T06:52:38;99819.78;;;9.00;70.71
76853;BME280;65825;52.232;10.566;2024-01-06T06:55:03;99816.34;;;8.98;70.14
76853;BME280;65825;52.232;10.566;2024-01-06T06:57:28;99815.59;;;8.94;70.71
76853;BME280;65825;52.232;10.566;2024-01-06T06:59:54;99814.47;;;8.78;69.50
76853;BME280;65825;52.232;10.566;2024-01-06T07:02:19;99816.94;;;8.37;70.20
76853;BME280;65825;52.232;10.566;2024-01-06T07:04:44;99826.66;;;8.10;70.75
76853;BME280;65825;52.232;10.566;2024-01-06T07:07:10;99835.47;;;7.83;72.94
76853;BME280;65825;52.232;10.566;2024-01-06T07:09:35;99834.91;;;7.74;73.37
76853;BME280;65825;52.232;10.566;2024-01-06T07:12:00;99839.94;;;7.55;74.53
76853;BME280;65825;52.232;10.566;2024-01-06T07:14:25;99817.38;;;7.50;74.58
76853;BME280;65825;52.232;10.566;2024-01-06T07:16:51;99847.78;;;7.29;75.73
76853;BME280;65825;52.232;10.566;2024-01-06T07:19:16;99837.53;;;7.22;75.61
76853;BME280;65825;52.232;10.566;2024-01-06T07:21:41;99850.56;;;7.52;75.10
76853;BME280;65825;52.232;10.566;2024-01-06T07:24:07;99856.25;;;7.11;76.37
76853;BME280;65825;52.232;10.566;2024-01-06T07:26:32;99863.63;;;7.26;76.40
76853;BME280;65825;52.232;10.566;2024-01-06T07:28:57;99869.34;;;7.39;75.91
76853;BME280;65825;52.232;10.566;2024-01-06T07:31:22;99871.69;;;7.20;76.90
76853;BME280;65825;52.232;10.566;2024-01-06T07:33:48;99875.03;;;7.25;76.64
76853;BME280;65825;52.232;10.566;2024-01-06T07:36:13;99874.66;;;7.10;76.32
76853;BME280;65825;52.232;10.566;2024-01-06T07:38:38;99882.63;;;6.47;79.53
76853;BME280;65825;52.232;10.566;2024-01-06T07:41:04;99884.72;;;6.96;78.53
76853;BME280;65825;52.232;10.566;2024-01-06T07:43:32;99891.44;;;7.04;77.58
76853;BME280;65825;52.232;10.566;2024-01-06T07:45:57;99888.63;;;6.83;78.55
76853;BME280;65825;52.232;10.566;2024-01-06T07:48:22;99890.91;;;6.93;78.83
76853;BME280;65825;52.232;10.566;2024-01-06T07:50:48;99894.25;;;6.98;77.77
76853;BME280;65825;52.232;10.566;2024-01-06T07:53:13;99899.22;;;7.07;77.18
76853;BME280;65825;52.232;10.566;2024-01-06T07:55:41;99899.72;;;6.91;78.26
76853;BME280;65825;52.232;10.566;2024-01-06T07:58:06;99918.31;;;6.53;79.42
76853;BME280;65825;52.232;10.566;2024-01-06T08:00:31;99920.09;;;6.51;80.31
76853;BME280;65825;52.232;10.566;2024-01-06T08:02:57;99919.47;;;6.73;79.83
76853;BME280;65825;52.232;10.566;2024-01-06T08:05:22;99930.34;;;6.60;80.01
76853;BME280;65825;52.232;10.566;2024-01-06T08:07:49;99923.16;;;6.68;79.62
76853;BME280;65825;52.232;10.566;2024-01-06T08:10:14;99926.81;;;6.61;80.31
76853;BME280;65825;52.232;10.566;2024-01-06T08:12:39;99937.09;;;6.68;80.14
76853;BME280;65825;52.232;10.566;2024-01-06T08:15:05;99947.34;;;6.77;79.61
76853;BME280;65825;52.232;10.566;2024-01-06T08:17:32;99949.78;;;6.21;80.97
76853;BME280;65825;52.232;10.566;2024-01-06T08:19:57;99949.66;;;6.57;80.53
76853;BME280;65825;52.232;10.566;2024-01-06T08:22:23;99956.53;;;6.61;80.87
76853;BME280;65825;52.232;10.566;2024-01-06T08:24:48;99961.66;;;6.66;80.80
76853;BME280;65825;52.232;10.566;2024-01-06T08:27:13;99966.31;;;6.55;80.82
76853;BME280;65825;52.232;10.566;2024-01-06T08:29:38;99964.59;;;6.86;79.26
76853;BME280;65825;52.232;10.566;2024-01-06T08:32:04;99968.50;;;7.02;78.17
76853;BME280;65825;52.232;10.566;2024-01-06T08:34:29;99979.06;;;6.68;79.74
76853;BME280;65825;52.232;10.566;2024-01-06T08:36:55;99992.78;;;6.46;80.74
76853;BME280;65825;52.232;10.566;2024-01-06T08:39:20;99990.00;;;6.84;79.47
76853;BME280;65825;52.232;10.566;2024-01-06T08:41:47;99995.47;;;7.07;78.24
76853;BME280;65825;52.232;10.566;2024-01-06T08:44:13;99999.94;;;7.03;77.97
76853;BME280;65825;52.232;10.566;2024-01-06T08:46:38;99995.88;;;6.92;78.42
76853;BME280;65825;52.232;10.566;2024-01-06T08:49:03;99995.22;;;6.85;78.57
76853;BME280;65825;52.232;10.566;2024-01-06T08:51:28;100002.56;;;6.73;79.91
76853;BME280;65825;52.232;10.566;2024-01-06T08:53:55;100001.06;;;6.95;79.37
76853;BME280;65825;52.232;10.566;2024-01-06T08:56:21;100002.38;;;7.09;78.29
76853;BME280;65825;52.232;10.566;2024-01-06T08:58:46;100009.06;;;7.21;77.81
76853;BME280;65825;52.232;10.566;2024-01-06T09:01:12;100005.13;;;7.06;77.53
76853;BME280;65825;52.232;10.566;2024-01-06T09:03:38;100005.22;;;7.02;77.80
76853;BME280;65825;52.232;10.566;2024-01-06T09:06:04;100014.94;;;6.68;78.81
76853;BME280;65825;52.232;10.566;2024-01-06T09:08:29;100020.22;;;6.97;78.64
76853;BME280;65825;52.232;10.566;2024-01-06T09:10:55;100023.63;;;7.00;78.49
76853;BME280;65825;52.232;10.566;2024-01-06T09:13:22;100025.16;;;6.77;79.03
76853;BME280;65825;52.232;10.566;2024-01-06T09:15:48;100033.28;;;7.00;78.75
76853;BME280;65825;52.232;10.566;2024-01-06T09:18:13;100042.72;;;6.75;79.36
76853;BME280;65825;52.232;10.566;2024-01-06T09:20:38;100043.84;;;6.97;79.16
76853;BME280;65825;52.232;10.566;2024-01-06T09:23:04;100049.19;;;6.94;78.62
76853;BME280;65825;52.232;10.566;2024-01-06T09:25:29;100051.91;;;6.91;79.58
76853;BME280;65825;52.232;10.566;2024-01-06T09:27:55;100056.06;;;6.98;79.03
76853;BME280;65825;52.232;10.566;2024-01-06T09:30:20;100052.50;;;7.00;78.00
76853;BME280;65825;52.232;10.566;2024-01-06T09:32:45;100068.34;;;6.97;78.72
76853;BME280;65825;52.232;10.566;2024-01-06T09:35:11;100066.47;;;6.69;78.90
76853;BME280;65825;52.232;10.566;2024-01-06T09:37:36;100072.03;;;6.90;79.44
76853;BME280;65825;52.232;10.566;2024-01-06T09:40:01;100077.59;;;7.10;78.25
76853;BME280;65825;52.232;10.566;2024-01-06T09:42:27;100077.44;;;7.16;77.77
76853;BME280;65825;52.232;10.566;2024-01-06T09:44:52;100087.09;;;7.14;78.29
76853;BME280;65825;52.232;10.566;2024-01-06T09:47:18;100071.34;;;7.14;77.78
76853;BME280;65825;52.232;10.566;2024-01-06T09:49:48;100087.16;;;6.79;79.35
76853;BME280;65825;52.232;10.566;2024-01-06T09:52:14;100090.41;;;6.90;79.20
76853;BME280;65825;52.232;10.566;2024-01-06T09:54:47;100092.63;;;6.72;79.33
76853;BME280;65825;52.232;10.566;2024-01-06T09:57:15;100079.91;;;6.90;78.86
76853;BME280;65825;52.232;10.566;2024-01-06T09:59:40;100085.28;;;6.51;79.27
76853;BME280;65825;52.232;10.566;2024-01-06T10:02:08;100093.63;;;6.33;81.29
76853;BME280;65825;52.232;10.566;2024-01-06T10:04:34;100094.41;;;6.36;81.85
76853;BME280;65825;52.232;10.566;2024-01-06T10:06:59;100095.38;;;6.32;81.47
76853;BME280;65825;52.232;10.566;2024-01-06T10:09:28;100093.31;;;6.45;81.40
76853;BME280;65825;52.232;10.566;2024-01-06T10:11:57;100097.25;;;6.62;80.23
76853;BME280;65825;52.232;10.566;2024-01-06T10:14:23;100100.16;;;6.85;78.92
76853;BME280;65825;52.232;10.566;2024-01-06T10:16:50;100100.59;;;6.32;81.49
76853;BME280;65825;52.232;10.566;2024-01-06T10:19:15;100108.06;;;6.49;80.45
76853;BME280;65825;52.232;10.566;2024-01-06T10:21:40;100101.69;;;6.60;79.96
76853;BME280;65825;52.232;10.566;2024-01-06T10:24:08;100097.41;;;6.20;81.83
76853;BME280;65825;52.232;10.566;2024-01-06T10:26:33;100104.31;;;6.24;81.87
76853;BME280;65825;52.232;10.566;2024-01-06T10:28:58;100110.50;;;6.91;79.81
76853;BME280;65825;52.232;10.566;2024-01-06T10:31:25;100107.28;;;6.80;79.40
76853;BME280;65825;52.232;10.566;2024-01-06T10:33:50;100121.41;;;6.75;79.15
76853;BME280;65825;52.232;10.566;2024-01-06T10:36:16;100113.50;;;6.41;80.20
76853;BME280;65825;52.232;10.566;2024-01-06T10:38:42;100118.06;;;7.02;78.42
76853;BME280;65825;52.232;10.566;2024-01-06T10:41:07;100118.78;;;6.75;79.59
76853;BME280;65825;52.232;10.566;2024-01-06T10:43:35;100117.66;;;6.85;78.80
76853;BME280;65825;52.232;10.566;2024-01-06T10:46:07;100118.75;;;6.76;79.04
76853;BME280;65825;52.232;10.566;2024-01-06T10:48:36;100125.03;;;6.69;79.91
76853;BME280;65825;52.232;10.566;2024-01-06T10:51:04;100129.28;;;6.75;79.06
76853;BME280;65825;52.232;10.566;2024-01-06T10:53:33;100128.19;;;6.83;79.12
76853;BME280;65825;52.232;10.566;2024-01-06T10:55:59;100125.75;;;6.76;79.31
76853;BME280;65825;52.232;10.566;2024-01-06T10:58:24;100131.38;;;6.61;79.81
76853;BME280;65825;52.232;10.566;2024-01-06T11:00:50;100133.91;;;6.65;79.28
76853;BME280;65825;52.232;10.566;2024-01-06T11:03:17;100132.97;;;6.68;78.67
76853;BME280;65825;52.232;10.566;2024-01-06T11:05:43;100134.38;;;6.79;78.79
76853;BME280;65825;52.232;10.566;2024-01-06T11:08:09;100139.50;;;6.50;79.85
76853;BME280;65825;52.232;10.566;2024-01-06T11:10:36;100128.38;;;6.76;79.27
76853;BME280;65825;52.232;10.566;2024-01-06T11:13:09;100130.66;;;5.78;81.53
76853;BME280;65825;52.232;10.566;2024-01-06T11:15:52;100132.38;;;6.19;82.00
76853;BME280;65825;52.232;10.566;2024-01-06T11:18:34;100131.78;;;6.06;81.55
76853;BME280;65825;52.232;10.566;2024-01-06T11:24:18;100123.09;;;6.06;81.83
76853;BME280;65825;52.232;10.566;2024-01-06T11:26:52;100131.81;;;6.43;80.34
76853;BME280;65825;52.232;10.566;2024-01-06T11:29:19;100129.69;;;6.23;80.71
76853;BME280;65825;52.232;10.566;2024-01-06T11:34:49;100130.38;;;5.92;81.08
76853;BME280;65825;52.232;10.566;2024-01-06T11:37:17;100133.50;;;6.07;82.35
76853;BME280;65825;52.232;10.566;2024-01-06T11:39:44;100130.72;;;6.15;80.94
76853;BME280;65825;52.232;10.566;2024-01-06T11:42:10;100137.16;;;6.00;81.05
76853;BME280;65825;52.232;10.566;2024-01-06T11:44:39;100140.97;;;6.25;81.13
76853;BME280;65825;52.232;10.566;2024-01-06T11:47:07;100146.72;;;6.03;81.02
76853;BME280;65825;52.232;10.566;2024-01-06T11:49:33;100142.50;;;5.97;81.22
76853;BME280;65825;52.232;10.566;2024-01-06T11:51:59;100143.19;;;6.04;81.59
76853;BME280;65825;52.232;10.566;2024-01-06T11:54:25;100147.88;;;6.29;80.18
76853;BME280;65825;52.232;10.566;2024-01-06T11:56:50;100145.47;;;5.81;80.22
76853;BME280;65825;52.232;10.566;2024-01-06T11:59:19;100147.84;;;5.91;81.03
76853;BME280;65825;52.232;10.566;2024-01-06T12:01:45;100155.22;;;6.14;80.51
76853;BME280;65825;52.232;10.566;2024-01-06T12:04:13;100156.44;;;6.36;79.96
76853;BME280;65825;52.232;10.566;2024-01-06T12:06:39;100149.75;;;6.23;80.23
76853;BME280;65825;52.232;10.566;2024-01-06T12:09:10;100140.94;;;6.27;79.92
76853;BME280;65825;52.232;10.566;2024-01-06T12:11:35;100140.94;;;6.27;78.39
76853;BME280;65825;52.232;10.566;2024-01-06T12:14:02;100143.00;;;6.13;79.41
76853;BME280;65825;52.232;10.566;2024-01-06T12:16:28;100141.13;;;6.19;79.22
76853;BME280;65825;52.232;10.566;2024-01-06T12:18:54;100141.44;;;6.06;79.56
76853;BME280;65825;52.232;10.566;2024-01-06T12:21:25;100153.09;;;6.31;79.29
76853;BME280;65825;52.232;10.566;2024-01-06T12:23:51;100152.41;;;6.21;79.62
76853;BME280;65825;52.232;10.566;2024-01-06T12:26:17;100155.34;;;6.08;80.18
76853;BME280;65825;52.232;10.566;2024-01-06T12:28:44;100161.81;;;6.30;79.85
76853;BME280;65825;52.232;10.566;2024-01-06T12:31:10;100165.31;;;5.92;80.95
76853;BME280;65825;52.232;10.566;2024-01-06T12:33:37;100166.31;;;5.85;80.48
76853;BME280;65825;52.232;10.566;2024-01-06T12:36:04;100174.34;;;6.17;80.18
76853;BME280;65825;52.232;10.566;2024-01-06T12:38:29;100172.16;;;5.98;79.84
76853;BME280;65825;52.232;10.566;2024-01-06T12:40:55;100166.41;;;5.79;80.14
76853;BME280;65825;52.232;10.566;2024-01-06T12:43:21;100177.72;;;5.83;80.64
76853;BME280;65825;52.232;10.566;2024-01-06T12:45:46;100176.56;;;5.97;80.17
76853;BME280;65825;52.232;10.566;2024-01-06T12:48:11;100168.78;;;5.93;79.81
76853;BME280;65825;52.232;10.566;2024-01-06T12:50:36;100167.06;;;5.92;80.40
76853;BME280;65825;52.232;10.566;2024-01-06T12:53:02;100170.72;;;5.85;80.80
76853;BME280;65825;52.232;10.566;2024-01-06T12:55:27;100173.97;;;5.94;79.45